sensor_id;sensor_type;location;lat;lon;timestamp;P1;durP1;ratioP1;P2;durP2;ratioP2
62574;SDS011;53112;45.602;11.904;2022-08-19T00:01:24;9.45;;;2.80;;
62574;SDS011;53112;45.602;11.904;2022-08-19T00:03:51;6.60;;;2.20;;
62574;SDS011;53112;45.602;11.904;2022-08-19T00:06:17;6.05;;;2.30;;
62574;SDS011;53112;45.602;11.904;2022-08-19T00:08:43;4.57;;;2.00;;
62574;SDS011;53112;45.602;11.904;2022-08-19T00:11:10;4.35;;;2.03;;
62574;SDS011;53112;45.602;11.904;2022-08-19T00:13:36;9.30;;;2.70;;
62574;SDS011;53112;45.602;11.904;2022-08-19T00:16:04;7.32;;;2.42;;
62574;SDS011;53112;45.602;11.904;2022-08-19T00:18:31;7.47;;;2.70;;
62574;SDS011;53112;45.602;11.904;2022-08-19T00:20:58;7.53;;;2.70;;
62574;SDS011;53112;45.602;11.904;2022-08-19T00:23:25;6.38;;;2.20;;
62574;SDS011;53112;45.602;11.904;2022-08-19T00:25:52;6.78;;;2.70;;
62574;SDS011;53112;45.602;11.904;2022-08-19T00:28:19;6.35;;;2.30;;
62574;SDS011;53112;45.602;11.904;2022-08-19T00:30:45;5.93;;;2.40;;
62574;SDS011;53112;45.602;11.904;2022-08-19T00:33:12;7.55;;;2.78;;
62574;SDS011;53112;45.602;11.904;2022-08-19T00:35:39;8.52;;;2.88;;
62574;SDS011;53112;45.602;11.904;2022-08-19T00:38:05;8.07;;;3.08;;
62574;SDS011;53112;45.602;11.904;2022-08-19T00:40:32;10.95;;;3.00;;
62574;SDS011;53112;45.602;11.904;2022-08-19T00:42:58;9.95;;;3.00;;
62574;SDS011;53112;45.602;11.904;2022-08-19T00:45:26;10.05;;;2.95;;
62574;SDS011;53112;45.602;11.904;2022-08-19T00:47:55;8.37;;;3.57;;
62574;SDS011;53112;45.602;11.904;2022-08-19T00:50:22;9.20;;;2.65;;
62574;SDS011;53112;45.602;11.904;2022-08-19T00:52:49;6.13;;;2.60;;
62574;SDS011;53112;45.602;11.904;2022-08-19T00:55:18;9.73;;;3.17;;
62574;SDS011;53112;45.602;11.904;2022-08-19T00:57:48;9.05;;;2.70;;
62574;SDS011;53112;45.602;11.904;2022-08-19T01:00:22;7.75;;;2.75;;
62574;SDS011;53112;45.602;11.904;2022-08-19T01:02:50;9.90;;;3.08;;
62574;SDS011;53112;45.602;11.904;2022-08-19T01:05:19;9.30;;;3.33;;
62574;SDS011;53112;45.602;11.904;2022-08-19T01:07:48;5.60;;;2.80;;
62574;SDS011;53112;45.602;11.904;2022-08-19T01:10:17;7.70;;;2.72;;
62574;SDS011;53112;45.602;11.904;2022-08-19T01:12:48;6.60;;;2.67;;
62574;SDS011;53112;45.602;11.904;2022-08-19T01:15:17;7.18;;;3.05;;
62574;SDS011;53112;45.602;11.904;2022-08-19T01:17:46;6.88;;;3.13;;
62574;SDS011;53112;45.602;11.904;2022-08-19T01:20:14;8.50;;;2.70;;
62574;SDS011;53112;45.602;11.904;2022-08-19T01:22:46;8.27;;;3.00;;
62574;SDS011;53112;45.602;11.904;2022-08-19T01:25:18;7.97;;;3.17;;
62574;SDS011;53112;45.602;11.904;2022-08-19T01:27:53;7.32;;;3.00;;
62574;SDS011;53112;45.602;11.904;2022-08-19T01:30:23;8.02;;;3.00;;
62574;SDS011;53112;45.602;11.904;2022-08-19T01:32:52;7.82;;;2.85;;
62574;SDS011;53112;45.602;11.904;2022-08-19T01:35:19;9.27;;;3.20;;
62574;SDS011;53112;45.602;11.904;2022-08-19T01:40:17;8.27;;;2.95;;
62574;SDS011;53112;45.602;11.904;2022-08-19T01:42:46;10.38;;;3.28;;
62574;SDS011;53112;45.602;11.904;2022-08-19T01:45:13;6.90;;;3.10;;
62574;SDS011;53112;45.602;11.904;2022-08-19T01:47:39;8.82;;;3.13;;
62574;SDS011;53112;45.602;11.904;2022-08-19T01:50:06;6.85;;;2.97;;
62574;SDS011;53112;45.602;11.904;2022-08-19T01:52:35;9.30;;;2.95;;
62574;SDS011;53112;45.602;11.904;2022-08-19T01:55:02;10.05;;;3.45;;
62574;SDS011;53112;45.602;11.904;2022-08-19T01:57:31;12.32;;;3.03;;
62574;SDS011;53112;45.602;11.904;2022-08-19T01:59:57;10.88;;;3.35;;
62574;SDS011;53112;45.602;11.904;2022-08-19T02:02:25;8.85;;;3.13;;
62574;SDS011;53112;45.602;11.904;2022-08-19T02:04:50;7.85;;;3.15;;
62574;SDS011;53112;45.602;11.904;2022-08-19T02:07:19;8.50;;;3.20;;
62574;SDS011;53112;45.602;11.904;2022-08-19T02:09:49;7.70;;;3.17;;
62574;SDS011;53112;45.602;11.904;2022-08-19T02:12:15;8.57;;;3.25;;
62574;SDS011;53112;45.602;11.904;2022-08-19T02:14:41;7.35;;;3.08;;
62574;SDS011;53112;45.602;11.904;2022-08-19T02:17:08;9.27;;;3.60;;
62574;SDS011;53112;45.602;11.904;2022-08-19T02:19:34;8.00;;;2.53;;
62574;SDS011;53112;45.602;11.904;2022-08-19T02:22:00;8.50;;;3.17;;
62574;SDS011;53112;45.602;11.904;2022-08-19T02:24:27;9.43;;;3.05;;
62574;SDS011;53112;45.602;11.904;2022-08-19T02:26:53;6.72;;;2.75;;
62574;SDS011;53112;45.602;11.904;2022-08-19T02:29:20;7.97;;;2.67;;
62574;SDS011;53112;45.602;11.904;2022-08-19T02:31:46;8.13;;;2.85;;
62574;SDS011;53112;45.602;11.904;2022-08-19T02:34:12;7.18;;;2.90;;
62574;SDS011;53112;45.602;11.904;2022-08-19T02:36:38;10.40;;;2.97;;
62574;SDS011;53112;45.602;11.904;2022-08-19T02:39:04;6.68;;;2.60;;
62574;SDS011;53112;45.602;11.904;2022-08-19T02:41:31;6.85;;;2.80;;
62574;SDS011;53112;45.602;11.904;2022-08-19T02:43:59;6.75;;;2.70;;
62574;SDS011;53112;45.602;11.904;2022-08-19T02:46:27;6.38;;;2.33;;
62574;SDS011;53112;45.602;11.904;2022-08-19T02:48:56;7.88;;;2.38;;
62574;SDS011;53112;45.602;11.904;2022-08-19T02:51:27;9.10;;;2.53;;
62574;SDS011;53112;45.602;11.904;2022-08-19T02:53:58;8.07;;;2.30;;
62574;SDS011;53112;45.602;11.904;2022-08-19T02:56:25;9.80;;;2.67;;
62574;SDS011;53112;45.602;11.904;2022-08-19T02:58:53;8.80;;;2.63;;
62574;SDS011;53112;45.602;11.904;2022-08-19T03:01:21;5.97;;;2.67;;
62574;SDS011;53112;45.602;11.904;2022-08-19T03:03:49;10.73;;;2.80;;
62574;SDS011;53112;45.602;11.904;2022-08-19T03:06:16;8.75;;;2.58;;
62574;SDS011;53112;45.602;11.904;2022-08-19T03:08:43;5.65;;;2.55;;
62574;SDS011;53112;45.602;11.904;2022-08-19T03:13:45;8.35;;;2.38;;
62574;SDS011;53112;45.602;11.904;2022-08-19T03:16:12;8.38;;;2.47;;
62574;SDS011;53112;45.602;11.904;2022-08-19T03:18:38;6.40;;;2.47;;
62574;SDS011;53112;45.602;11.904;2022-08-19T03:21:04;5.32;;;2.20;;
62574;SDS011;53112;45.602;11.904;2022-08-19T03:23:31;5.65;;;2.40;;
62574;SDS011;53112;45.602;11.904;2022-08-19T03:25:58;5.95;;;2.20;;
62574;SDS011;53112;45.602;11.904;2022-08-19T03:28:24;6.25;;;2.42;;
62574;SDS011;53112;45.602;11.904;2022-08-19T03:31:03;7.60;;;2.63;;
62574;SDS011;53112;45.602;11.904;2022-08-19T03:33:32;4.60;;;1.95;;
62574;SDS011;53112;45.602;11.904;2022-08-19T03:36:07;5.03;;;1.92;;
62574;SDS011;53112;45.602;11.904;2022-08-19T03:38:36;5.75;;;1.83;;
62574;SDS011;53112;45.602;11.904;2022-08-19T03:41:23;7.45;;;2.08;;
62574;SDS011;53112;45.602;11.904;2022-08-19T03:43:51;5.63;;;2.10;;
62574;SDS011;53112;45.602;11.904;2022-08-19T03:46:19;4.95;;;2.00;;
62574;SDS011;53112;45.602;11.904;2022-08-19T03:48:52;4.32;;;2.05;;
62574;SDS011;53112;45.602;11.904;2022-08-19T03:51:20;3.83;;;1.80;;
62574;SDS011;53112;45.602;11.904;2022-08-19T03:53:56;4.45;;;1.80;;
62574;SDS011;53112;45.602;11.904;2022-08-19T03:56:24;3.85;;;1.80;;
62574;SDS011;53112;45.602;11.904;2022-08-19T03:58:51;4.72;;;1.95;;
62574;SDS011;53112;45.602;11.904;2022-08-19T04:01:20;4.38;;;2.00;;
62574;SDS011;53112;45.602;11.904;2022-08-19T04:03:48;4.13;;;1.90;;
62574;SDS011;53112;45.602;11.904;2022-08-19T04:08:51;4.93;;;1.90;;
62574;SDS011;53112;45.602;11.904;2022-08-19T04:11:22;5.10;;;1.75;;
62574;SDS011;53112;45.602;11.904;2022-08-19T04:13:53;3.72;;;1.55;;
62574;SDS011;53112;45.602;11.904;2022-08-19T04:16:22;6.15;;;1.90;;
62574;SDS011;53112;45.602;11.904;2022-08-19T04:18:49;3.42;;;1.95;;
62574;SDS011;53112;45.602;11.904;2022-08-19T04:21:20;6.07;;;1.80;;
62574;SDS011;53112;45.602;11.904;2022-08-19T04:23:48;3.70;;;1.70;;
62574;SDS011;53112;45.602;11.904;2022-08-19T04:26:15;4.57;;;1.70;;
62574;SDS011;53112;45.602;11.904;2022-08-19T04:28:45;5.00;;;1.95;;
62574;SDS011;53112;45.602;11.904;2022-08-19T04:31:15;3.83;;;1.60;;
62574;SDS011;53112;45.602;11.904;2022-08-19T04:33:47;3.03;;;2.00;;
62574;SDS011;53112;45.602;11.904;2022-08-19T04:36:19;4.30;;;2.00;;
62574;SDS011;53112;45.602;11.904;2022-08-19T04:38:49;4.63;;;1.90;;
62574;SDS011;53112;45.602;11.904;2022-08-19T04:41:18;7.35;;;2.13;;
62574;SDS011;53112;45.602;11.904;2022-08-19T04:44:03;4.65;;;2.10;;
62574;SDS011;53112;45.602;11.904;2022-08-19T04:46:30;5.38;;;2.30;;
62574;SDS011;53112;45.602;11.904;2022-08-19T04:49:00;4.47;;;2.38;;
62574;SDS011;53112;45.602;11.904;2022-08-19T04:51:27;7.20;;;2.55;;
62574;SDS011;53112;45.602;11.904;2022-08-19T04:53:56;6.43;;;2.33;;
62574;SDS011;53112;45.602;11.904;2022-08-19T04:56:25;6.07;;;2.13;;
62574;SDS011;53112;45.602;11.904;2022-08-19T04:58:52;6.30;;;2.20;;
62574;SDS011;53112;45.602;11.904;2022-08-19T05:01:22;6.82;;;2.47;;
62574;SDS011;53112;45.602;11.904;2022-08-19T05:03:49;5.57;;;2.38;;
62574;SDS011;53112;45.602;11.904;2022-08-19T05:06:17;10.98;;;2.33;;
62574;SDS011;53112;45.602;11.904;2022-08-19T05:08:45;4.22;;;2.28;;
62574;SDS011;53112;45.602;11.904;2022-08-19T05:11:16;6.90;;;2.20;;
62574;SDS011;53112;45.602;11.904;2022-08-19T05:13:46;4.15;;;2.08;;
62574;SDS011;53112;45.602;11.904;2022-08-19T05:16:18;5.15;;;1.60;;
62574;SDS011;53112;45.602;11.904;2022-08-19T05:18:45;4.22;;;1.70;;
62574;SDS011;53112;45.602;11.904;2022-08-19T05:21:31;5.68;;;1.80;;
62574;SDS011;53112;45.602;11.904;2022-08-19T05:24:16;3.72;;;2.00;;
62574;SDS011;53112;45.602;11.904;2022-08-19T05:26:44;2.63;;;1.67;;
62574;SDS011;53112;45.602;11.904;2022-08-19T05:29:14;5.30;;;1.50;;
62574;SDS011;53112;45.602;11.904;2022-08-19T05:31:42;2.92;;;1.70;;
62574;SDS011;53112;45.602;11.904;2022-08-19T05:34:09;4.05;;;2.20;;
62574;SDS011;53112;45.602;11.904;2022-08-19T05:36:36;6.03;;;2.17;;
62574;SDS011;53112;45.602;11.904;2022-08-19T05:39:05;3.80;;;1.75;;
62574;SDS011;53112;45.602;11.904;2022-08-19T05:41:37;4.13;;;1.75;;
62574;SDS011;53112;45.602;11.904;2022-08-19T05:44:10;2.40;;;1.80;;
62574;SDS011;53112;45.602;11.904;2022-08-19T05:46:37;5.28;;;1.75;;
62574;SDS011;53112;45.602;11.904;2022-08-19T05:49:05;3.45;;;1.60;;
62574;SDS011;53112;45.602;11.904;2022-08-19T05:51:32;4.57;;;1.90;;
62574;SDS011;53112;45.602;11.904;2022-08-19T05:53:59;4.28;;;1.50;;
62574;SDS011;53112;45.602;11.904;2022-08-19T05:56:26;3.78;;;1.70;;
62574;SDS011;53112;45.602;11.904;2022-08-19T05:58:55;7.07;;;1.80;;
62574;SDS011;53112;45.602;11.904;2022-08-19T06:01:21;4.90;;;1.60;;
62574;SDS011;53112;45.602;11.904;2022-08-19T06:03:47;5.10;;;1.63;;
62574;SDS011;53112;45.602;11.904;2022-08-19T06:06:14;4.18;;;1.50;;
62574;SDS011;53112;45.602;11.904;2022-08-19T06:08:41;4.68;;;1.60;;
62574;SDS011;53112;45.602;11.904;2022-08-19T06:14:13;3.08;;;1.63;;
62574;SDS011;53112;45.602;11.904;2022-08-19T06:16:45;3.92;;;1.70;;
62574;SDS011;53112;45.602;11.904;2022-08-19T06:19:13;3.63;;;1.50;;
62574;SDS011;53112;45.602;11.904;2022-08-19T06:21:42;2.97;;;1.50;;
62574;SDS011;53112;45.602;11.904;2022-08-19T06:24:10;3.00;;;1.52;;
62574;SDS011;53112;45.602;11.904;2022-08-19T06:26:38;4.20;;;1.40;;
62574;SDS011;53112;45.602;11.904;2022-08-19T06:29:06;3.42;;;2.40;;
62574;SDS011;53112;45.602;11.904;2022-08-19T06:31:34;7.93;;;3.85;;
62574;SDS011;53112;45.602;11.904;2022-08-19T06:34:02;8.05;;;3.53;;
62574;SDS011;53112;45.602;11.904;2022-08-19T06:36:31;5.68;;;3.00;;
62574;SDS011;53112;45.602;11.904;2022-08-19T06:39:13;4.03;;;2.33;;
62574;SDS011;53112;45.602;11.904;2022-08-19T06:41:45;4.63;;;1.95;;
62574;SDS011;53112;45.602;11.904;2022-08-19T06:44:12;3.83;;;1.70;;
62574;SDS011;53112;45.602;11.904;2022-08-19T06:46:40;3.47;;;1.52;;
62574;SDS011;53112;45.602;11.904;2022-08-19T06:49:07;3.92;;;1.80;;
62574;SDS011;53112;45.602;11.904;2022-08-19T06:54:09;4.78;;;1.40;;
62574;SDS011;53112;45.602;11.904;2022-08-19T06:56:36;3.63;;;1.60;;
62574;SDS011;53112;45.602;11.904;2022-08-19T06:59:07;2.83;;;1.38;;
62574;SDS011;53112;45.602;11.904;2022-08-19T07:01:39;4.28;;;1.40;;
62574;SDS011;53112;45.602;11.904;2022-08-19T07:04:13;3.55;;;1.45;;
62574;SDS011;53112;45.602;11.904;2022-08-19T07:06:41;5.07;;;1.58;;
62574;SDS011;53112;45.602;11.904;2022-08-19T07:09:10;2.95;;;1.30;;
62574;SDS011;53112;45.602;11.904;2022-08-19T07:11:38;3.80;;;1.25;;
62574;SDS011;53112;45.602;11.904;2022-08-19T07:14:08;2.58;;;1.20;;
62574;SDS011;53112;45.602;11.904;2022-08-19T07:16:34;4.78;;;1.60;;
62574;SDS011;53112;45.602;11.904;2022-08-19T07:19:00;3.83;;;1.67;;
62574;SDS011;53112;45.602;11.904;2022-08-19T07:21:26;4.25;;;1.55;;
62574;SDS011;53112;45.602;11.904;2022-08-19T07:23:56;6.53;;;1.80;;
62574;SDS011;53112;45.602;11.904;2022-08-19T07:26:26;4.95;;;1.75;;
62574;SDS011;53112;45.602;11.904;2022-08-19T07:28:54;4.38;;;1.77;;
62574;SDS011;53112;45.602;11.904;2022-08-19T07:31:24;4.53;;;1.88;;
62574;SDS011;53112;45.602;11.904;2022-08-19T07:33:52;3.10;;;1.73;;
62574;SDS011;53112;45.602;11.904;2022-08-19T07:36:24;2.47;;;1.55;;
62574;SDS011;53112;45.602;11.904;2022-08-19T07:38:55;5.70;;;1.55;;
62574;SDS011;53112;45.602;11.904;2022-08-19T07:41:23;4.47;;;1.80;;
62574;SDS011;53112;45.602;11.904;2022-08-19T07:43:51;4.28;;;1.92;;
62574;SDS011;53112;45.602;11.904;2022-08-19T07:46:18;3.90;;;1.60;;
62574;SDS011;53112;45.602;11.904;2022-08-19T07:48:46;3.67;;;1.70;;
62574;SDS011;53112;45.602;11.904;2022-08-19T07:51:15;4.05;;;1.70;;
62574;SDS011;53112;45.602;11.904;2022-08-19T07:53:44;4.18;;;1.70;;
62574;SDS011;53112;45.602;11.904;2022-08-19T07:56:12;5.55;;;1.83;;
62574;SDS011;53112;45.602;11.904;2022-08-19T07:58:40;3.95;;;1.55;;
62574;SDS011;53112;45.602;11.904;2022-08-19T08:01:09;4.03;;;1.75;;
62574;SDS011;53112;45.602;11.904;2022-08-19T08:03:38;4.57;;;1.65;;
62574;SDS011;53112;45.602;11.904;2022-08-19T08:06:22;3.42;;;1.90;;
62574;SDS011;53112;45.602;11.904;2022-08-19T08:09:08;3.13;;;1.98;;
62574;SDS011;53112;45.602;11.904;2022-08-19T08:11:42;3.95;;;1.80;;
62574;SDS011;53112;45.602;11.904;2022-08-19T08:14:19;4.55;;;2.20;;
62574;SDS011;53112;45.602;11.904;2022-08-19T08:16:54;5.10;;;1.80;;
62574;SDS011;53112;45.602;11.904;2022-08-19T08:19:21;4.57;;;1.77;;
62574;SDS011;53112;45.602;11.904;2022-08-19T08:21:49;4.78;;;1.98;;
62574;SDS011;53112;45.602;11.904;2022-08-19T08:24:16;4.78;;;1.85;;
62574;SDS011;53112;45.602;11.904;2022-08-19T08:26:43;6.32;;;2.00;;
62574;SDS011;53112;45.602;11.904;2022-08-19T08:29:10;5.55;;;2.35;;
62574;SDS011;53112;45.602;11.904;2022-08-19T08:31:39;7.03;;;2.40;;
62574;SDS011;53112;45.602;11.904;2022-08-19T08:34:07;7.93;;;3.50;;
62574;SDS011;53112;45.602;11.904;2022-08-19T08:36:36;11.25;;;4.35;;
62574;SDS011;53112;45.602;11.904;2022-08-19T08:39:06;8.55;;;3.70;;
62574;SDS011;53112;45.602;11.904;2022-08-19T08:41:42;8.05;;;3.42;;
62574;SDS011;53112;45.602;11.904;2022-08-19T08:44:32;8.40;;;3.47;;
62574;SDS011;53112;45.602;11.904;2022-08-19T08:47:17;6.50;;;2.72;;
62574;SDS011;53112;45.602;11.904;2022-08-19T08:49:51;7.47;;;1.98;;
62574;SDS011;53112;45.602;11.904;2022-08-19T08:52:29;7.57;;;2.35;;
62574;SDS011;53112;45.602;11.904;2022-08-19T08:55:05;6.85;;;1.98;;
62574;SDS011;53112;45.602;11.904;2022-08-19T08:57:39;3.38;;;1.92;;
62574;SDS011;53112;45.602;11.904;2022-08-19T09:00:20;6.63;;;2.15;;
62574;SDS011;53112;45.602;11.904;2022-08-19T09:02:58;3.55;;;1.90;;
62574;SDS011;53112;45.602;11.904;2022-08-19T09:06:03;5.13;;;2.13;;
62574;SDS011;53112;45.602;11.904;2022-08-19T09:11:23;4.05;;;1.73;;
62574;SDS011;53112;45.602;11.904;2022-08-19T09:14:09;3.72;;;1.88;;
62574;SDS011;53112;45.602;11.904;2022-08-19T09:16:56;6.20;;;1.80;;
62574;SDS011;53112;45.602;11.904;2022-08-19T09:19:23;4.90;;;1.85;;
62574;SDS011;53112;45.602;11.904;2022-08-19T09:21:49;4.65;;;1.80;;
62574;SDS011;53112;45.602;11.904;2022-08-19T09:24:15;4.43;;;1.90;;
62574;SDS011;53112;45.602;11.904;2022-08-19T09:26:41;6.53;;;1.98;;
62574;SDS011;53112;45.602;11.904;2022-08-19T09:29:09;5.78;;;2.03;;
62574;SDS011;53112;45.602;11.904;2022-08-19T09:31:35;3.17;;;1.65;;
62574;SDS011;53112;45.602;11.904;2022-08-19T09:34:02;3.17;;;1.80;;
62574;SDS011;53112;45.602;11.904;2022-08-19T09:36:30;4.47;;;1.90;;
62574;SDS011;53112;45.602;11.904;2022-08-19T09:38:59;3.58;;;1.80;;
62574;SDS011;53112;45.602;11.904;2022-08-19T09:41:25;4.55;;;1.65;;
62574;SDS011;53112;45.602;11.904;2022-08-19T09:43:53;5.47;;;1.83;;
62574;SDS011;53112;45.602;11.904;2022-08-19T09:46:24;4.37;;;1.83;;
62574;SDS011;53112;45.602;11.904;2022-08-19T09:48:52;4.95;;;1.90;;
62574;SDS011;53112;45.602;11.904;2022-08-19T09:51:19;3.00;;;1.80;;
62574;SDS011;53112;45.602;11.904;2022-08-19T09:53:47;2.90;;;1.70;;
62574;SDS011;53112;45.602;11.904;2022-08-19T09:56:22;3.85;;;1.70;;
62574;SDS011;53112;45.602;11.904;2022-08-19T09:58:48;4.65;;;1.83;;
62574;SDS011;53112;45.602;11.904;2022-08-19T10:01:24;5.55;;;2.03;;
62574;SDS011;53112;45.602;11.904;2022-08-19T10:03:55;10.90;;;2.30;;
62574;SDS011;53112;45.602;11.904;2022-08-19T10:06:23;5.32;;;2.13;;
62574;SDS011;53112;45.602;11.904;2022-08-19T10:08:51;5.45;;;1.90;;
62574;SDS011;53112;45.602;11.904;2022-08-19T10:11:18;5.72;;;1.98;;
62574;SDS011;53112;45.602;11.904;2022-08-19T10:13:46;3.33;;;1.80;;
62574;SDS011;53112;45.602;11.904;2022-08-19T10:16:15;4.18;;;1.67;;
62574;SDS011;53112;45.602;11.904;2022-08-19T10:18:44;4.18;;;1.50;;
62574;SDS011;53112;45.602;11.904;2022-08-19T10:21:12;6.88;;;1.90;;
62574;SDS011;53112;45.602;11.904;2022-08-19T10:23:41;3.25;;;1.40;;
62574;SDS011;53112;45.602;11.904;2022-08-19T10:26:18;4.43;;;1.50;;
62574;SDS011;53112;45.602;11.904;2022-08-19T10:28:47;4.05;;;1.67;;
62574;SDS011;53112;45.602;11.904;2022-08-19T10:31:14;4.75;;;1.70;;
62574;SDS011;53112;45.602;11.904;2022-08-19T10:33:42;5.32;;;1.50;;
62574;SDS011;53112;45.602;11.904;2022-08-19T10:36:10;4.75;;;1.80;;
62574;SDS011;53112;45.602;11.904;2022-08-19T10:38:43;3.45;;;1.60;;
62574;SDS011;53112;45.602;11.904;2022-08-19T10:41:13;4.68;;;1.65;;
62574;SDS011;53112;45.602;11.904;2022-08-19T10:43:41;2.78;;;1.60;;
62574;SDS011;53112;45.602;11.904;2022-08-19T10:46:11;3.65;;;1.40;;
62574;SDS011;53112;45.602;11.904;2022-08-19T10:48:40;3.83;;;1.50;;
62574;SDS011;53112;45.602;11.904;2022-08-19T10:51:08;3.60;;;1.55;;
62574;SDS011;53112;45.602;11.904;2022-08-19T10:53:54;4.38;;;1.40;;
62574;SDS011;53112;45.602;11.904;2022-08-19T10:56:21;3.05;;;1.50;;
62574;SDS011;53112;45.602;11.904;2022-08-19T10:59:06;2.08;;;1.20;;
62574;SDS011;53112;45.602;11.904;2022-08-19T11:01:33;2.75;;;1.35;;
62574;SDS011;53112;45.602;11.904;2022-08-19T11:04:00;3.72;;;1.52;;
62574;SDS011;53112;45.602;11.904;2022-08-19T11:06:27;2.00;;;1.10;;
62574;SDS011;53112;45.602;11.904;2022-08-19T11:09:02;2.47;;;1.27;;
62574;SDS011;53112;45.602;11.904;2022-08-19T11:11:28;4.25;;;1.23;;
62574;SDS011;53112;45.602;11.904;2022-08-19T11:13:54;3.88;;;1.45;;
62574;SDS011;53112;45.602;11.904;2022-08-19T11:16:24;2.58;;;1.17;;
62574;SDS011;53112;45.602;11.904;2022-08-19T11:18:57;3.70;;;1.27;;
62574;SDS011;53112;45.602;11.904;2022-08-19T11:21:29;4.45;;;1.38;;
62574;SDS011;53112;45.602;11.904;2022-08-19T11:23:58;2.92;;;1.30;;
62574;SDS011;53112;45.602;11.904;2022-08-19T11:26:26;2.78;;;1.40;;
62574;SDS011;53112;45.602;11.904;2022-08-19T11:28:54;3.15;;;1.40;;
62574;SDS011;53112;45.602;11.904;2022-08-19T11:31:22;4.28;;;1.45;;
62574;SDS011;53112;45.602;11.904;2022-08-19T11:33:50;2.95;;;1.55;;
62574;SDS011;53112;45.602;11.904;2022-08-19T11:36:19;5.85;;;1.40;;
62574;SDS011;53112;45.602;11.904;2022-08-19T11:38:49;3.25;;;1.17;;
62574;SDS011;53112;45.602;11.904;2022-08-19T11:41:17;4.22;;;1.40;;
62574;SDS011;53112;45.602;11.904;2022-08-19T11:43:44;2.88;;;1.42;;
62574;SDS011;53112;45.602;11.904;2022-08-19T11:46:12;4.28;;;1.52;;
62574;SDS011;53112;45.602;11.904;2022-08-19T11:48:40;4.15;;;1.40;;
62574;SDS011;53112;45.602;11.904;2022-08-19T11:51:08;5.28;;;1.25;;
62574;SDS011;53112;45.602;11.904;2022-08-19T11:53:36;4.18;;;1.35;;
62574;SDS011;53112;45.602;11.904;2022-08-19T11:56:02;2.33;;;1.17;;
62574;SDS011;53112;45.602;11.904;2022-08-19T11:58:30;2.30;;;1.38;;
62574;SDS011;53112;45.602;11.904;2022-08-19T12:00:56;2.92;;;1.40;;
62574;SDS011;53112;45.602;11.904;2022-08-19T12:03:22;3.97;;;1.50;;
62574;SDS011;53112;45.602;11.904;2022-08-19T12:05:48;2.97;;;1.35;;
62574;SDS011;53112;45.602;11.904;2022-08-19T12:08:15;4.65;;;1.50;;
62574;SDS011;53112;45.602;11.904;2022-08-19T12:10:42;3.33;;;1.40;;
62574;SDS011;53112;45.602;11.904;2022-08-19T12:13:09;4.32;;;1.30;;
62574;SDS011;53112;45.602;11.904;2022-08-19T12:15:38;4.43;;;1.40;;
62574;SDS011;53112;45.602;11.904;2022-08-19T12:18:10;2.47;;;1.30;;
62574;SDS011;53112;45.602;11.904;2022-08-19T12:20:39;4.43;;;1.40;;
62574;SDS011;53112;45.602;11.904;2022-08-19T12:23:08;3.10;;;1.30;;
62574;SDS011;53112;45.602;11.904;2022-08-19T12:25:35;4.13;;;1.50;;
62574;SDS011;53112;45.602;11.904;2022-08-19T12:28:02;2.60;;;1.50;;
62574;SDS011;53112;45.602;11.904;2022-08-19T12:30:29;3.83;;;1.50;;
62574;SDS011;53112;45.602;11.904;2022-08-19T12:32:55;3.10;;;1.40;;
62574;SDS011;53112;45.602;11.904;2022-08-19T12:35:21;2.83;;;1.50;;
62574;SDS011;53112;45.602;11.904;2022-08-19T12:37:47;3.47;;;1.50;;
62574;SDS011;53112;45.602;11.904;2022-08-19T12:40:14;2.38;;;1.20;;
62574;SDS011;53112;45.602;11.904;2022-08-19T12:42:41;4.25;;;1.52;;
62574;SDS011;53112;45.602;11.904;2022-08-19T12:45:10;4.05;;;1.30;;
62574;SDS011;53112;45.602;11.904;2022-08-19T12:47:38;4.72;;;1.50;;
62574;SDS011;53112;45.602;11.904;2022-08-19T12:50:04;2.55;;;1.30;;
62574;SDS011;53112;45.602;11.904;2022-08-19T12:52:34;3.35;;;1.30;;
62574;SDS011;53112;45.602;11.904;2022-08-19T12:55:06;3.17;;;1.40;;
62574;SDS011;53112;45.602;11.904;2022-08-19T12:57:33;4.53;;;1.33;;
62574;SDS011;53112;45.602;11.904;2022-08-19T13:00:08;2.20;;;1.20;;
62574;SDS011;53112;45.602;11.904;2022-08-19T13:02:37;3.38;;;1.10;;
62574;SDS011;53112;45.602;11.904;2022-08-19T13:05:04;3.60;;;1.20;;
62574;SDS011;53112;45.602;11.904;2022-08-19T13:07:33;3.50;;;1.30;;
62574;SDS011;53112;45.602;11.904;2022-08-19T13:10:00;3.75;;;1.40;;
62574;SDS011;53112;45.602;11.904;2022-08-19T13:12:26;1.52;;;1.10;;
62574;SDS011;53112;45.602;11.904;2022-08-19T13:14:53;4.22;;;1.20;;
62574;SDS011;53112;45.602;11.904;2022-08-19T13:17:20;2.50;;;1.30;;
62574;SDS011;53112;45.602;11.904;2022-08-19T13:19:46;2.28;;;1.20;;
62574;SDS011;53112;45.602;11.904;2022-08-19T13:22:12;3.42;;;1.20;;
62574;SDS011;53112;45.602;11.904;2022-08-19T13:24:38;2.58;;;1.27;;
62574;SDS011;53112;45.602;11.904;2022-08-19T13:27:04;4.90;;;1.25;;
62574;SDS011;53112;45.602;11.904;2022-08-19T13:29:32;4.22;;;1.42;;
62574;SDS011;53112;45.602;11.904;2022-08-19T13:32:16;2.50;;;1.38;;
62574;SDS011;53112;45.602;11.904;2022-08-19T13:35:01;3.15;;;1.10;;
62574;SDS011;53112;45.602;11.904;2022-08-19T13:37:28;3.30;;;1.20;;
62574;SDS011;53112;45.602;11.904;2022-08-19T13:40:11;2.30;;;1.20;;
62574;SDS011;53112;45.602;11.904;2022-08-19T13:42:44;2.03;;;1.40;;
62574;SDS011;53112;45.602;11.904;2022-08-19T13:45:13;2.17;;;1.20;;
62574;SDS011;53112;45.602;11.904;2022-08-19T13:47:40;2.20;;;1.30;;
62574;SDS011;53112;45.602;11.904;2022-08-19T13:50:11;3.35;;;1.40;;
62574;SDS011;53112;45.602;11.904;2022-08-19T13:52:39;3.80;;;1.38;;
62574;SDS011;53112;45.602;11.904;2022-08-19T13:55:06;2.75;;;1.30;;
62574;SDS011;53112;45.602;11.904;2022-08-19T13:57:33;2.30;;;1.30;;
62574;SDS011;53112;45.602;11.904;2022-08-19T14:00:00;3.17;;;1.23;;
62574;SDS011;53112;45.602;11.904;2022-08-19T14:02:27;3.30;;;1.20;;
62574;SDS011;53112;45.602;11.904;2022-08-19T14:04:53;2.17;;;1.40;;
62574;SDS011;53112;45.602;11.904;2022-08-19T14:07:19;2.55;;;1.30;;
62574;SDS011;53112;45.602;11.904;2022-08-19T14:09:47;2.70;;;1.20;;
62574;SDS011;53112;45.602;11.904;2022-08-19T14:12:13;2.70;;;1.20;;
62574;SDS011;53112;45.602;11.904;2022-08-19T14:14:38;3.08;;;1.50;;
62574;SDS011;53112;45.602;11.904;2022-08-19T14:17:05;3.08;;;1.30;;
62574;SDS011;53112;45.602;11.904;2022-08-19T14:19:32;3.90;;;1.40;;
62574;SDS011;53112;45.602;11.904;2022-08-19T14:21:58;2.20;;;1.25;;
62574;SDS011;53112;45.602;11.904;2022-08-19T14:24:24;2.63;;;1.15;;
62574;SDS011;53112;45.602;11.904;2022-08-19T14:26:50;2.17;;;1.30;;
62574;SDS011;53112;45.602;11.904;2022-08-19T14:29:16;2.33;;;1.30;;
62574;SDS011;53112;45.602;11.904;2022-08-19T14:31:42;2.22;;;1.35;;
62574;SDS011;53112;45.602;11.904;2022-08-19T14:34:10;3.28;;;1.48;;
62574;SDS011;53112;45.602;11.904;2022-08-19T14:36:38;4.00;;;1.20;;
62574;SDS011;53112;45.602;11.904;2022-08-19T14:39:04;3.13;;;1.08;;
62574;SDS011;53112;45.602;11.904;2022-08-19T14:41:30;4.22;;;2.10;;
62574;SDS011;53112;45.602;11.904;2022-08-19T14:43:58;4.30;;;1.67;;
62574;SDS011;53112;45.602;11.904;2022-08-19T14:46:26;3.95;;;1.40;;
62574;SDS011;53112;45.602;11.904;2022-08-19T14:48:54;4.70;;;1.50;;
62574;SDS011;53112;45.602;11.904;2022-08-19T14:51:21;3.05;;;1.20;;
62574;SDS011;53112;45.602;11.904;2022-08-19T14:53:48;4.55;;;1.55;;
62574;SDS011;53112;45.602;11.904;2022-08-19T14:56:16;3.40;;;1.30;;
62574;SDS011;53112;45.602;11.904;2022-08-19T14:58:47;3.70;;;1.40;;
62574;SDS011;53112;45.602;11.904;2022-08-19T15:01:16;3.83;;;1.30;;